This is the latest recevied weather packets stored in our database for station/object GW1596. If no packets are shown the sender has not sent any weather packets the latest 10 day(s).
| Time | Temp. | Humidity | Pressure | Rain* | Wind** | Luminosity | Snow |
|---|---|---|---|---|---|---|---|
| 1777227175 | 16.11° C | 63% | 1020.9 hPa | 0 mm | - | - | - |
| 1777222106 | 13.33° C | 72% | 1020.9 hPa | 0 mm | - | - | - |
| 1777221386 | 13.33° C | 74% | 1020.9 hPa | 0 mm | - | - | - |
| 1777220659 | 12.22° C | 75% | 1021.3 hPa | 0 mm | - | - | - |
| 1777216009 | 10.56° C | 80% | 1021.3 hPa | 0 mm | - | - | - |
| 1777215257 | 10° C | 81% | 1020.9 hPa | 0 mm | - | - | - |
| 1777214931 | 10° C | 80% | 1020.9 hPa | 0 mm | - | - | - |
| 1777213826 | 10° C | 82% | 1020.9 hPa | 0 mm | - | - | - |
| 1777213102 | 10° C | 82% | 1020.9 hPa | 0 mm | - | - | - |
| 1777212051 | 9.44° C | 82% | 1020.3 hPa | 0 mm | - | - | - |
| 1777209158 | 9.44° C | 83% | 1020.6 hPa | 0 mm | - | - | - |
| 1777207359 | 9.44° C | 83% | 1020.3 hPa | 0 mm | - | - | - |
| 1777202317 | 9.44° C | 84% | 1019.6 hPa | 0 mm | - | - | - |
| 1777201941 | 10° C | 84% | 1019.3 hPa | 0 mm | - | - | - |
| 1777198332 | 10° C | 82% | 1018.6 hPa | 0 mm | - | - | - |
| 1777197265 | 10.56° C | 81% | 1018.2 hPa | 0 mm | - | - | - |
| 1777194014 | 11.67° C | 78% | 1017.6 hPa | 0 mm | - | - | - |
| 1777191156 | 12.22° C | 76% | 1016.9 hPa | 0 mm | - | - | - |
| 1777185396 | 13.33° C | 73% | 1016.2 hPa | 0 mm | - | - | - |
| 1777185022 | 13.33° C | 73% | 1016.2 hPa | 0 mm | - | - | - |
| 1777184672 | 13.33° C | 72% | 1016.2 hPa | 0 mm | - | - | - |
| 1777183947 | 13.33° C | 71% | 1016.2 hPa | 0 mm | - | - | - |
| 1777182525 | 13.89° C | 72% | 1015.9 hPa | 0 mm | - | - | - |
| 1777181801 | 13.89° C | 72% | 1016.2 hPa | 0 mm | - | - | - |
| 1777180333 | 14.44° C | 74% | 1016.2 hPa | 0 mm | - | - | - |
* Rain since midnight (hover to see other rain measurements)
** Current wind speed in m/s (hover to see current wind gust speed)